createdAt,value
2023-03-05T00:01:00.529Z,0.90
2023-03-05T00:03:30.252Z,1.20
2023-03-05T00:05:59.663Z,1.05
2023-03-05T00:08:31.000Z,1.67
2023-03-05T00:11:01.992Z,1.58
2023-03-05T00:13:57.843Z,1.83
2023-03-05T00:16:52.088Z,1.33
2023-03-05T00:19:25.898Z,1.62
2023-03-05T00:21:56.527Z,1.92
2023-03-05T00:24:26.691Z,1.70
2023-03-05T00:26:56.737Z,1.52
2023-03-05T00:29:30.810Z,1.37
2023-03-05T00:32:01.245Z,0.85
2023-03-05T00:34:32.411Z,1.25
2023-03-05T00:37:01.548Z,1.40
2023-03-05T00:39:31.553Z,1.15
2023-03-05T00:42:00.756Z,1.30
2023-03-05T00:44:31.405Z,1.40
2023-03-05T00:47:01.160Z,1.25
2023-03-05T00:49:31.141Z,0.90
2023-03-05T00:59:47.492Z,1.42
2023-03-05T01:09:03.697Z,1.70
2023-03-05T01:12:20.531Z,1.75
2023-03-05T01:15:10.042Z,1.90
2023-03-05T01:21:49.266Z,1.52
2023-03-05T01:24:19.022Z,2.50
2023-03-05T01:26:48.550Z,1.90
2023-03-05T01:29:18.107Z,1.80
2023-03-05T01:31:48.108Z,1.52
2023-03-05T01:34:18.836Z,2.10
2023-03-05T01:36:51.153Z,1.60
2023-03-05T01:39:20.591Z,1.65
2023-03-05T01:41:50.377Z,1.87
2023-03-05T01:44:36.074Z,1.42
2023-03-05T01:47:06.278Z,1.35
2023-03-05T01:49:40.144Z,1.77
2023-03-05T01:52:19.926Z,1.60
2023-03-05T01:54:54.723Z,2.53
2023-03-05T01:57:47.174Z,1.95
2023-03-05T02:00:21.160Z,1.85
2023-03-05T02:02:52.375Z,2.22
2023-03-05T02:05:30.143Z,1.83
2023-03-05T02:08:01.904Z,1.67
2023-03-05T02:10:38.714Z,2.28
2023-03-05T02:13:13.311Z,2.12
2023-03-05T02:15:47.919Z,2.00
2023-03-05T02:18:19.003Z,1.95
2023-03-05T02:20:55.851Z,1.55
2023-03-05T02:23:30.475Z,2.20
2023-03-05T02:26:00.702Z,1.85
2023-03-05T02:28:39.651Z,1.42
2023-03-05T02:31:14.440Z,1.52
2023-03-05T02:33:44.201Z,2.05
2023-03-05T02:36:14.532Z,2.10
2023-03-05T02:38:45.287Z,2.08
2023-03-05T02:41:17.680Z,1.80
2023-03-05T02:43:46.903Z,1.92
2023-03-05T02:46:16.795Z,1.67
2023-03-05T02:48:46.380Z,1.37
2023-03-05T02:51:16.946Z,1.80
2023-03-05T02:53:47.258Z,1.50
2023-03-05T02:56:18.412Z,1.52
2023-03-05T02:58:47.726Z,2.00
2023-03-05T03:01:17.432Z,1.23
2023-03-05T03:03:47.031Z,1.80
2023-03-05T03:06:16.244Z,1.40
2023-03-05T03:08:45.937Z,1.62
2023-03-05T03:11:15.751Z,1.80
2023-03-05T03:13:45.326Z,2.00
2023-03-05T03:16:16.253Z,2.70
2023-03-05T03:18:48.073Z,2.03
2023-03-05T03:21:21.757Z,1.77
2023-03-05T03:23:51.830Z,1.45
2023-03-05T03:26:21.387Z,1.42
2023-03-05T03:28:51.532Z,1.40
2023-03-05T03:31:22.298Z,1.20
2023-03-05T03:33:51.782Z,1.35
2023-03-05T03:36:21.635Z,1.10
2023-03-05T03:38:50.753Z,1.25
2023-03-05T03:41:20.632Z,1.33
2023-03-05T03:43:50.819Z,1.85
2023-03-05T03:46:20.173Z,1.75
2023-03-05T03:48:52.431Z,1.77
2023-03-05T03:51:22.419Z,2.17
2023-03-05T03:53:51.809Z,1.55
2023-03-05T03:56:22.449Z,1.80
2023-03-05T03:58:53.914Z,1.50
2023-03-05T04:01:24.014Z,1.62
2023-03-05T04:03:53.587Z,1.50
2023-03-05T04:06:22.893Z,1.90
2023-03-05T04:08:52.369Z,2.03
2023-03-05T04:11:22.197Z,1.80
2023-03-05T04:13:51.544Z,2.00
2023-03-05T04:16:23.107Z,1.65
2023-03-05T04:18:52.945Z,2.00
2023-03-05T04:21:22.714Z,2.20
2023-03-05T04:23:52.742Z,1.80
2023-03-05T04:26:22.078Z,1.73
2023-03-05T04:28:51.694Z,1.52
2023-03-05T04:31:22.381Z,1.37
2023-03-05T04:33:52.118Z,1.60
2023-03-05T04:36:22.651Z,2.03
2023-03-05T04:38:51.838Z,1.50
2023-03-05T04:41:21.822Z,1.33
2023-03-05T04:43:51.247Z,1.80
2023-03-05T04:46:20.563Z,1.65
2023-03-05T04:48:50.497Z,1.60
2023-03-05T04:51:20.193Z,1.37
2023-03-05T04:53:50.590Z,1.40
2023-03-05T04:56:19.875Z,1.50
2023-03-05T04:58:49.841Z,1.17
2023-03-05T05:01:20.211Z,1.23
2023-03-05T05:03:50.079Z,1.40
2023-03-05T05:06:19.368Z,1.48
2023-03-05T05:08:49.023Z,1.52
2023-03-05T05:11:21.656Z,1.37
2023-03-05T05:13:51.184Z,1.87
2023-03-05T05:16:23.676Z,1.52
2023-03-05T05:18:53.594Z,1.65
2023-03-05T05:21:23.415Z,1.15
2023-03-05T05:23:52.940Z,1.45
2023-03-05T05:26:23.615Z,1.27
2023-03-05T05:28:53.101Z,1.30
2023-03-05T05:31:23.196Z,1.50
2023-03-05T05:33:52.563Z,1.60
2023-03-05T05:36:23.295Z,1.08
2023-03-05T05:38:52.608Z,0.98
2023-03-05T05:41:21.930Z,1.23
2023-03-05T05:43:52.625Z,1.20
2023-03-05T05:46:23.232Z,1.40
2023-03-05T05:48:53.512Z,1.40
2023-03-05T05:51:25.214Z,1.40
2023-03-05T05:53:55.452Z,1.40
2023-03-05T05:56:24.968Z,1.20
2023-03-05T05:58:54.992Z,1.05
2023-03-05T06:01:28.771Z,2.03
2023-03-05T06:03:59.085Z,1.02
2023-03-05T06:06:29.197Z,1.40
2023-03-05T06:08:58.893Z,1.30
2023-03-05T06:11:28.061Z,1.27
2023-03-05T06:13:57.338Z,1.15
2023-03-05T06:16:27.204Z,1.85
2023-03-05T06:18:56.452Z,1.80
2023-03-05T06:21:26.139Z,0.82
2023-03-05T06:23:56.165Z,1.37
2023-03-05T06:26:26.196Z,1.10
2023-03-05T06:28:55.849Z,1.62
2023-03-05T06:31:37.141Z,1.23
2023-03-05T06:34:13.998Z,1.27
2023-03-05T06:36:44.887Z,1.00
2023-03-05T06:39:15.328Z,1.00
2023-03-05T06:41:49.826Z,1.27
2023-03-05T06:44:19.955Z,1.20
2023-03-05T06:46:53.972Z,1.00
2023-03-05T06:49:40.491Z,1.42
2023-03-05T06:52:19.090Z,1.40
2023-03-05T06:54:49.212Z,1.50
2023-03-05T06:57:18.492Z,1.30
2023-03-05T06:59:55.126Z,1.50
2023-03-05T07:02:24.679Z,1.30
2023-03-05T07:04:57.235Z,0.85
2023-03-05T07:07:26.835Z,0.90
2023-03-05T07:09:59.618Z,1.45
2023-03-05T07:12:35.348Z,1.52
2023-03-05T07:15:12.246Z,1.48
2023-03-05T07:17:41.763Z,1.20
2023-03-05T07:20:12.748Z,1.20
2023-03-05T07:22:42.341Z,1.15
2023-03-05T07:25:14.773Z,0.93
2023-03-05T07:27:48.073Z,1.02
2023-03-05T07:30:18.485Z,1.12
2023-03-05T07:32:48.437Z,1.12
2023-03-05T07:35:25.566Z,1.37
2023-03-05T07:37:58.739Z,0.75
2023-03-05T07:40:29.226Z,1.10
2023-03-05T07:43:00.391Z,1.30
2023-03-05T07:45:33.129Z,1.70
2023-03-05T07:48:03.147Z,1.10
2023-03-05T07:50:34.262Z,0.85
2023-03-05T07:53:03.840Z,1.50
2023-03-05T07:55:34.087Z,1.17
2023-03-05T07:58:06.719Z,1.42
2023-03-05T08:00:37.203Z,1.10
2023-03-05T08:03:07.113Z,1.75
2023-03-05T08:05:37.571Z,1.23
2023-03-05T08:08:07.945Z,0.93
2023-03-05T08:10:38.290Z,0.70
2023-03-05T08:13:08.216Z,1.00
2023-03-05T08:15:39.561Z,0.77
2023-03-05T08:18:09.494Z,1.30
2023-03-05T08:20:38.584Z,0.60
2023-03-05T08:23:08.095Z,1.00
2023-03-05T08:25:39.810Z,1.20
2023-03-05T08:28:27.908Z,1.05
2023-03-05T08:30:58.362Z,0.98
2023-03-05T08:33:29.239Z,1.35
2023-03-05T08:36:01.129Z,1.10
2023-03-05T08:38:30.492Z,1.08
2023-03-05T08:40:59.725Z,0.95
2023-03-05T08:43:29.954Z,1.55
2023-03-05T08:46:01.385Z,1.52
2023-03-05T08:48:32.817Z,2.30
2023-03-05T08:51:12.639Z,1.42
2023-03-05T08:53:43.667Z,3.42
2023-03-05T08:56:15.640Z,1.75
2023-03-05T08:58:46.906Z,0.83
2023-03-05T09:01:16.703Z,1.40
2023-03-05T09:03:46.355Z,1.10
2023-03-05T09:06:16.742Z,1.12
2023-03-05T09:08:46.348Z,1.70
2023-03-05T09:11:16.648Z,1.00
2023-03-05T09:13:46.155Z,1.40
2023-03-05T09:16:18.867Z,1.30
2023-03-05T09:18:48.839Z,1.25
2023-03-05T09:21:21.811Z,1.40
2023-03-05T09:23:51.286Z,1.20
2023-03-05T09:26:22.024Z,0.95
2023-03-05T09:28:51.264Z,1.12
2023-03-05T09:31:20.783Z,1.40
2023-03-05T09:33:51.249Z,1.20
2023-03-05T09:36:24.345Z,1.40
2023-03-05T09:38:54.942Z,1.62
2023-03-05T09:41:59.600Z,1.25
2023-03-05T09:45:08.613Z,0.98
2023-03-05T09:47:52.644Z,1.30
2023-03-05T09:50:26.874Z,1.37
2023-03-05T09:53:03.477Z,1.08
2023-03-05T09:55:41.176Z,1.80
2023-03-05T09:58:19.030Z,1.10
2023-03-05T10:00:52.194Z,1.20
2023-03-05T10:03:42.908Z,1.85
2023-03-05T10:06:33.928Z,1.70
2023-03-05T10:09:18.550Z,2.65
2023-03-05T10:12:12.197Z,2.25
2023-03-05T10:14:42.897Z,2.00
2023-03-05T10:17:33.010Z,2.17
2023-03-05T10:20:37.953Z,1.80
2023-03-05T10:23:30.351Z,1.75
2023-03-05T10:26:28.304Z,1.58
2023-03-05T10:29:33.360Z,2.33
2023-03-05T10:32:14.363Z,2.55
2023-03-05T10:34:56.078Z,2.58
2023-03-05T10:37:47.724Z,2.58
2023-03-05T10:40:23.011Z,2.40
2023-03-05T10:43:24.691Z,2.78
2023-03-05T10:45:56.082Z,2.78
2023-03-05T10:48:33.840Z,2.55
2023-03-05T10:51:25.582Z,2.60
2023-03-05T10:54:03.039Z,2.85
2023-03-05T10:56:33.243Z,2.25
2023-03-05T10:59:03.394Z,3.35
2023-03-05T11:01:33.884Z,3.22
2023-03-05T11:04:07.159Z,2.47
2023-03-05T11:06:41.235Z,3.25
2023-03-05T11:09:20.707Z,2.58
2023-03-05T11:12:18.338Z,2.47
2023-03-05T11:15:04.901Z,2.35
2023-03-05T11:17:40.423Z,2.70
2023-03-05T11:20:30.096Z,3.22
2023-03-05T11:23:17.153Z,2.90
2023-03-05T11:26:04.234Z,3.05
2023-03-05T11:28:40.280Z,3.20
2023-03-05T11:31:19.031Z,3.12
2023-03-05T11:34:05.489Z,2.85
2023-03-05T11:36:40.164Z,2.58
2023-03-05T11:39:10.122Z,3.00
2023-03-05T11:41:50.173Z,2.28
2023-03-05T11:44:35.644Z,2.87
2023-03-05T11:47:29.405Z,4.07
2023-03-05T11:50:35.152Z,3.22
2023-03-05T11:53:10.242Z,4.28
2023-03-05T11:55:49.758Z,4.47
2023-03-05T11:58:58.726Z,5.72
2023-03-05T12:01:32.455Z,4.53
2023-03-05T12:04:02.309Z,5.18
2023-03-05T12:06:36.238Z,4.60
2023-03-05T12:09:34.588Z,4.32
2023-03-05T12:12:30.723Z,5.35
2023-03-05T12:15:05.601Z,4.22
2023-03-05T12:17:42.267Z,4.93
2023-03-05T12:20:29.077Z,5.47
2023-03-05T12:23:01.629Z,5.80
2023-03-05T12:25:48.839Z,6.43
2023-03-05T12:28:35.305Z,8.38
2023-03-05T12:31:22.501Z,6.90
2023-03-05T12:33:53.713Z,6.72
2023-03-05T12:36:35.309Z,7.35
2023-03-05T12:39:44.134Z,7.62
2023-03-05T12:42:33.697Z,7.50
2023-03-05T12:45:20.402Z,7.22
2023-03-05T12:47:58.904Z,8.70
2023-03-05T12:50:28.941Z,7.57
2023-03-05T12:53:08.270Z,8.30
2023-03-05T12:55:57.549Z,6.37
2023-03-05T12:58:40.200Z,6.45
2023-03-05T13:01:18.476Z,6.90
2023-03-05T13:03:55.513Z,5.40
2023-03-05T13:06:34.862Z,7.22
2023-03-05T13:09:09.740Z,6.72
2023-03-05T13:11:39.992Z,5.03
2023-03-05T13:14:30.538Z,5.20
2023-03-05T13:17:00.329Z,6.10
2023-03-05T13:19:33.539Z,5.20
2023-03-05T13:22:05.962Z,5.72
2023-03-05T13:27:21.681Z,4.10
2023-03-05T13:29:53.591Z,5.85
2023-03-05T13:32:29.437Z,5.43
2023-03-05T13:35:01.892Z,6.07
2023-03-05T13:40:19.570Z,6.25
2023-03-05T13:42:49.198Z,6.37
2023-03-05T13:45:27.818Z,8.02
2023-03-05T13:48:03.895Z,6.55
2023-03-05T13:50:36.351Z,9.27
2023-03-05T13:53:28.098Z,10.02
2023-03-05T13:56:09.750Z,6.35
2023-03-05T13:59:07.046Z,7.75
2023-03-05T14:01:49.090Z,5.87
2023-03-05T14:04:24.605Z,7.55
2023-03-05T14:07:06.066Z,7.72
2023-03-05T14:09:39.691Z,5.95
2023-03-05T14:12:28.230Z,6.22
2023-03-05T14:15:03.576Z,7.22
2023-03-05T14:17:43.719Z,6.05
2023-03-05T14:20:31.252Z,5.85
2023-03-05T14:23:02.857Z,5.82
2023-03-05T14:25:39.194Z,5.90
2023-03-05T14:28:28.393Z,5.40
2023-03-05T14:31:00.468Z,5.90
2023-03-05T14:33:32.810Z,5.97
2023-03-05T14:36:04.330Z,5.03
2023-03-05T14:38:35.809Z,4.70
2023-03-05T14:41:42.843Z,7.05
2023-03-05T14:44:16.352Z,5.70
2023-03-05T14:46:50.659Z,6.72
2023-03-05T14:49:21.083Z,5.45
2023-03-05T14:51:50.878Z,4.20
2023-03-05T14:54:23.706Z,5.70
2023-03-05T14:56:53.784Z,5.57
2023-03-05T14:59:23.546Z,4.80
2023-03-05T15:01:53.062Z,4.80
2023-03-05T15:04:23.192Z,4.72
2023-03-05T15:06:53.887Z,4.10
2023-03-05T15:09:25.143Z,5.32
2023-03-05T15:11:54.758Z,5.45
2023-03-05T15:14:24.542Z,4.28
2023-03-05T15:16:59.243Z,4.30
2023-03-05T15:19:30.401Z,4.53
2023-03-05T15:22:00.165Z,4.53
2023-03-05T15:24:30.054Z,5.18
2023-03-05T15:26:59.450Z,5.32
2023-03-05T15:29:29.058Z,5.53
2023-03-05T15:31:59.571Z,6.12
2023-03-05T15:34:30.163Z,6.12
2023-03-05T15:36:59.955Z,7.25
2023-03-05T15:39:29.744Z,7.05
2023-03-05T15:42:01.728Z,6.65
2023-03-05T15:44:31.952Z,6.03
2023-03-05T15:47:01.886Z,6.22
2023-03-05T15:49:31.144Z,7.57
2023-03-05T15:52:01.175Z,6.37
2023-03-05T15:54:31.381Z,5.20
2023-03-05T15:57:00.780Z,5.85
2023-03-05T15:59:31.104Z,4.20
2023-03-05T16:02:00.907Z,4.57
2023-03-05T16:04:32.003Z,4.22
2023-03-05T16:07:04.796Z,4.32
2023-03-05T16:09:42.479Z,4.12
2023-03-05T16:12:18.660Z,4.65
2023-03-05T16:14:50.995Z,4.87
2023-03-05T16:17:23.900Z,3.87
2023-03-05T16:19:56.664Z,5.10
2023-03-05T16:22:26.552Z,5.53
2023-03-05T16:24:57.727Z,5.47
2023-03-05T16:27:31.098Z,5.43
2023-03-05T16:30:02.282Z,5.30
2023-03-05T16:32:32.105Z,4.75
2023-03-05T16:35:02.167Z,4.75
2023-03-05T16:37:32.528Z,5.05
2023-03-05T16:40:03.612Z,4.93
2023-03-05T16:42:37.661Z,5.55
2023-03-05T16:45:09.719Z,7.85
2023-03-05T16:47:40.892Z,7.00
2023-03-05T16:50:13.645Z,10.35
2023-03-05T16:55:33.070Z,6.03
2023-03-05T16:58:03.044Z,4.60
2023-03-05T17:00:35.653Z,4.78
2023-03-05T17:03:05.373Z,3.60
2023-03-05T17:05:39.685Z,3.95
2023-03-05T17:08:09.465Z,4.45
2023-03-05T17:10:39.793Z,6.03
2023-03-05T17:13:10.078Z,6.25
2023-03-05T17:18:40.341Z,5.62
2023-03-05T17:21:11.803Z,4.40
2023-03-05T17:23:44.699Z,5.15
2023-03-05T17:26:19.868Z,6.20
2023-03-05T17:28:50.116Z,6.72
2023-03-05T17:31:20.182Z,6.15
2023-03-05T17:33:50.054Z,5.25
2023-03-05T17:36:21.933Z,4.97
2023-03-05T17:38:52.568Z,5.80
2023-03-05T17:41:22.647Z,5.87
2023-03-05T17:43:52.705Z,6.60
2023-03-05T17:46:22.008Z,6.68
2023-03-05T17:48:51.796Z,7.10
2023-03-05T17:51:22.123Z,7.95
2023-03-05T17:53:51.681Z,6.60
2023-03-05T17:56:26.384Z,8.20
2023-03-05T17:58:58.699Z,7.80
2023-03-05T18:01:33.320Z,7.70
2023-03-05T18:04:17.941Z,8.20
2023-03-05T18:06:50.950Z,8.10
2023-03-05T18:09:21.082Z,7.25
2023-03-05T18:11:50.709Z,7.80
2023-03-05T18:14:21.651Z,7.25
2023-03-05T18:16:55.478Z,8.52
2023-03-05T18:19:26.012Z,7.65
2023-03-05T18:21:55.689Z,8.40
2023-03-05T18:24:25.343Z,9.63
2023-03-05T18:26:55.080Z,8.10
2023-03-05T18:29:24.394Z,8.77
2023-03-05T18:31:53.844Z,8.25
2023-03-05T18:34:26.463Z,7.80
2023-03-05T18:36:56.224Z,8.65
2023-03-05T18:39:25.287Z,7.43
2023-03-05T18:41:54.696Z,7.20
2023-03-05T18:44:25.022Z,9.68
2023-03-05T18:46:54.228Z,8.77
2023-03-05T18:49:23.514Z,9.23
2023-03-05T18:51:56.858Z,9.75
2023-03-05T18:56:58.172Z,11.18
2023-03-05T18:59:27.637Z,9.23
2023-03-05T19:01:57.665Z,7.12
2023-03-05T19:04:27.020Z,4.87
2023-03-05T19:06:56.338Z,6.28
2023-03-05T19:09:54.500Z,6.45
2023-03-05T19:12:28.476Z,6.37
2023-03-05T19:15:00.781Z,6.62
2023-03-05T19:17:33.680Z,5.47
2023-03-05T19:20:07.099Z,6.10
2023-03-05T19:22:36.709Z,7.07
2023-03-05T19:25:08.069Z,6.05
2023-03-05T19:27:43.166Z,5.53
2023-03-05T19:30:16.067Z,4.78
2023-03-05T19:32:50.592Z,6.75
2023-03-05T19:35:23.355Z,5.50
2023-03-05T19:37:52.557Z,6.07
2023-03-05T19:40:26.049Z,6.22
2023-03-05T19:42:55.415Z,7.28
2023-03-05T19:45:26.120Z,5.37
2023-03-05T19:47:55.289Z,6.37
2023-03-05T19:50:51.317Z,7.65
2023-03-05T19:53:26.241Z,3.33
2023-03-05T19:56:06.297Z,3.37
2023-03-05T19:58:48.701Z,5.87
2023-03-05T20:01:40.182Z,6.47
2023-03-05T20:04:24.601Z,6.15
2023-03-05T20:06:57.178Z,6.37
2023-03-05T20:09:30.491Z,5.95
2023-03-05T20:12:09.118Z,5.12
2023-03-05T20:14:43.255Z,4.47
2023-03-05T20:17:17.001Z,7.70
2023-03-05T20:19:47.140Z,5.55
2023-03-05T20:22:16.383Z,7.87
2023-03-05T20:24:48.042Z,8.65
2023-03-05T20:27:17.678Z,12.15
2023-03-05T20:29:47.019Z,9.38
2023-03-05T20:32:16.610Z,10.45
2023-03-05T20:34:46.734Z,12.50
2023-03-05T20:37:16.347Z,11.12
2023-03-05T20:39:59.933Z,11.57
2023-03-05T20:42:36.061Z,10.02
2023-03-05T20:45:05.965Z,11.00
2023-03-05T20:47:41.553Z,10.82
2023-03-05T20:50:12.069Z,10.30
2023-03-05T20:52:42.295Z,9.90
2023-03-05T20:55:12.666Z,11.48
2023-03-05T20:57:44.913Z,9.82
2023-03-05T21:00:15.200Z,11.00
2023-03-05T21:02:45.057Z,10.65
2023-03-05T21:05:15.266Z,10.63
2023-03-05T21:07:45.039Z,10.75
2023-03-05T21:10:17.144Z,10.15
2023-03-05T21:12:48.889Z,10.07
2023-03-05T21:15:25.662Z,11.02
2023-03-05T21:17:56.220Z,10.80
2023-03-05T21:20:29.503Z,10.18
2023-03-05T21:23:00.824Z,8.07
2023-03-05T21:25:31.515Z,9.20
2023-03-05T21:28:04.226Z,6.45
2023-03-05T21:30:40.179Z,7.78
2023-03-05T21:33:13.218Z,7.53
2023-03-05T21:35:42.942Z,9.05
2023-03-05T21:38:18.238Z,8.57
2023-03-05T21:40:49.844Z,8.95
2023-03-05T21:43:23.048Z,7.80
2023-03-05T21:45:54.677Z,9.27
2023-03-05T21:48:25.652Z,8.13
2023-03-05T21:50:55.853Z,9.05
2023-03-05T21:53:26.563Z,8.60
2023-03-05T21:56:18.558Z,7.15
2023-03-05T21:58:49.037Z,7.78
2023-03-05T22:01:19.972Z,7.78
2023-03-05T22:03:51.171Z,6.82
2023-03-05T22:06:21.684Z,6.97
2023-03-05T22:08:51.342Z,4.30
2023-03-05T22:11:21.703Z,7.70
2023-03-05T22:13:51.505Z,6.10
2023-03-05T22:16:24.953Z,7.50
2023-03-05T22:18:55.915Z,8.13
2023-03-05T22:21:27.922Z,7.85
2023-03-05T22:23:58.864Z,7.70
2023-03-05T22:26:37.631Z,8.38
2023-03-05T22:29:09.995Z,8.48
2023-03-05T22:31:39.640Z,8.05
2023-03-05T22:34:10.561Z,8.18
2023-03-05T22:36:40.707Z,8.45
2023-03-05T22:39:11.113Z,8.95
2023-03-05T22:41:42.597Z,8.73
2023-03-05T22:44:12.339Z,8.88
2023-03-05T22:46:41.626Z,9.32
2023-03-05T22:49:11.740Z,9.77
2023-03-05T22:51:41.229Z,8.27
2023-03-05T22:54:10.769Z,9.40
2023-03-05T22:56:40.892Z,8.68
2023-03-05T22:59:10.290Z,7.87
2023-03-05T23:01:39.773Z,7.72
2023-03-05T23:04:47.617Z,8.52
2023-03-05T23:07:19.020Z,7.93
2023-03-05T23:10:00.346Z,8.23
2023-03-05T23:12:34.102Z,8.25
2023-03-05T23:15:08.490Z,7.40
2023-03-05T23:17:38.471Z,8.07
2023-03-05T23:20:11.137Z,6.93
2023-03-05T23:22:41.169Z,6.68
2023-03-05T23:25:11.744Z,5.95
2023-03-05T23:27:41.377Z,6.07
2023-03-05T23:30:23.917Z,6.25
2023-03-05T23:32:55.765Z,6.82
2023-03-05T23:35:28.957Z,6.57
2023-03-05T23:40:40.294Z,6.82
2023-03-05T23:43:09.666Z,6.87
2023-03-05T23:45:39.454Z,6.93
2023-03-05T23:48:09.432Z,7.07
2023-03-05T23:50:41.596Z,7.20
2023-03-05T23:53:15.892Z,6.82
2023-03-05T23:55:46.022Z,7.75
2023-03-05T23:58:19.658Z,7.15
